createdAt,value
2017-10-05T00:00:37.722Z,42.50
2017-10-05T00:01:38.296Z,32.90
2017-10-05T00:02:38.000Z,37.30
2017-10-05T00:03:37.735Z,33.60
2017-10-05T00:04:38.622Z,33.80
2017-10-05T00:05:38.169Z,39.30
2017-10-05T00:06:37.759Z,30.20
2017-10-05T00:07:38.310Z,38.00
2017-10-05T00:08:37.716Z,31.90
2017-10-05T00:09:37.973Z,32.00
2017-10-05T00:10:38.171Z,37.50
2017-10-05T00:11:37.805Z,36.00
2017-10-05T00:12:37.550Z,32.80
2017-10-05T00:13:38.561Z,34.20
2017-10-05T00:14:37.842Z,36.40
2017-10-05T00:15:38.230Z,33.50
2017-10-05T00:16:38.071Z,32.70
2017-10-05T00:17:37.627Z,39.70
2017-10-05T00:18:38.079Z,32.40
2017-10-05T00:19:37.320Z,29.30
2017-10-05T00:20:39.047Z,36.20
2017-10-05T00:21:37.722Z,37.60
2017-10-05T00:22:38.303Z,31.40
2017-10-05T00:23:37.212Z,32.70
2017-10-05T00:24:37.437Z,30.00
2017-10-05T00:25:37.539Z,37.70
2017-10-05T00:26:37.960Z,36.90
2017-10-05T00:27:37.500Z,38.70
2017-10-05T00:28:37.756Z,29.60
2017-10-05T00:29:37.399Z,32.80
2017-10-05T00:30:38.005Z,34.10
2017-10-05T00:31:37.582Z,33.00
2017-10-05T00:32:38.083Z,36.70
2017-10-05T00:33:37.575Z,37.20
2017-10-05T00:34:38.163Z,32.50
2017-10-05T00:35:38.130Z,31.10
2017-10-05T00:36:37.813Z,34.60
2017-10-05T00:37:38.342Z,32.10
2017-10-05T00:38:37.864Z,33.20
2017-10-05T00:39:37.438Z,29.80
2017-10-05T00:40:37.743Z,27.80
2017-10-05T00:41:38.240Z,25.80
2017-10-05T00:42:37.907Z,32.60
2017-10-05T00:43:37.047Z,29.20
2017-10-05T00:44:37.527Z,30.10
2017-10-05T00:45:37.835Z,31.90
2017-10-05T00:46:37.539Z,33.20
2017-10-05T00:47:37.773Z,31.50
2017-10-05T00:48:37.474Z,30.80
2017-10-05T00:49:37.644Z,35.90
2017-10-05T00:50:38.256Z,33.40
2017-10-05T00:51:37.790Z,26.20
2017-10-05T00:52:37.397Z,35.30
2017-10-05T00:53:37.945Z,32.00
2017-10-05T00:54:37.500Z,29.00
2017-10-05T00:55:37.914Z,33.50
2017-10-05T00:56:37.544Z,37.40
2017-10-05T00:57:37.459Z,35.80
2017-10-05T00:58:38.089Z,32.50
2017-10-05T00:59:37.242Z,31.70
2017-10-05T01:00:37.716Z,38.10
2017-10-05T01:01:37.966Z,42.80
2017-10-05T01:02:37.510Z,42.00
2017-10-05T01:03:37.779Z,44.40
2017-10-05T01:04:37.347Z,44.50
2017-10-05T01:05:37.562Z,41.80
2017-10-05T01:06:37.842Z,48.20
2017-10-05T01:07:37.452Z,44.90
2017-10-05T01:08:37.974Z,44.00
2017-10-05T01:09:37.617Z,42.00
2017-10-05T01:10:37.430Z,43.60
2017-10-05T01:11:38.550Z,44.70
2017-10-05T01:12:38.173Z,37.20
2017-10-05T01:13:37.512Z,38.50
2017-10-05T01:14:38.149Z,38.20
2017-10-05T01:15:37.334Z,42.90
2017-10-05T01:16:37.719Z,38.80
2017-10-05T01:17:37.863Z,39.60
2017-10-05T01:18:37.551Z,44.70
2017-10-05T01:19:38.108Z,38.80
2017-10-05T01:20:37.378Z,35.50
2017-10-05T01:21:38.221Z,38.70
2017-10-05T01:22:38.308Z,38.70
2017-10-05T01:23:37.909Z,40.50
2017-10-05T01:24:37.154Z,30.90
2017-10-05T01:25:37.837Z,35.20
2017-10-05T01:26:37.086Z,46.20
2017-10-05T01:27:37.790Z,35.20
2017-10-05T01:28:37.424Z,38.10
2017-10-05T01:29:37.600Z,43.90
2017-10-05T01:30:37.795Z,31.10
2017-10-05T01:31:37.086Z,35.20
2017-10-05T01:32:37.781Z,30.60
2017-10-05T01:33:37.369Z,30.50
2017-10-05T01:34:37.994Z,37.40
2017-10-05T01:35:36.988Z,32.50
2017-10-05T01:36:37.381Z,35.60
2017-10-05T01:37:38.381Z,38.00
2017-10-05T01:38:37.498Z,40.30
2017-10-05T01:39:38.157Z,36.90
2017-10-05T01:40:37.291Z,42.10
2017-10-05T01:41:37.884Z,37.70
2017-10-05T01:42:37.456Z,36.00
2017-10-05T01:43:38.032Z,41.50
2017-10-05T01:44:37.627Z,46.40
2017-10-05T01:45:37.919Z,36.00
2017-10-05T01:46:38.269Z,47.30
2017-10-05T01:47:37.526Z,40.20
2017-10-05T01:48:37.720Z,45.40
2017-10-05T01:49:38.267Z,39.20
2017-10-05T01:50:37.398Z,43.60
2017-10-05T01:51:37.967Z,41.40
2017-10-05T01:52:37.044Z,37.40
2017-10-05T01:53:37.037Z,44.10
2017-10-05T01:54:37.758Z,44.60
2017-10-05T01:55:37.517Z,32.60
2017-10-05T01:56:38.291Z,47.50
2017-10-05T01:57:38.247Z,43.40
2017-10-05T01:58:37.570Z,40.30
2017-10-05T01:59:37.920Z,47.20
2017-10-05T02:00:37.276Z,54.50
2017-10-05T02:01:37.870Z,50.90
2017-10-05T02:02:38.264Z,48.80
2017-10-05T02:03:37.828Z,54.70
2017-10-05T02:04:37.760Z,57.70
2017-10-05T02:05:37.316Z,54.80
2017-10-05T02:06:37.879Z,53.00
2017-10-05T02:07:37.743Z,54.70
2017-10-05T02:08:37.411Z,59.60
2017-10-05T02:09:37.921Z,60.80
2017-10-05T02:10:37.159Z,63.70
2017-10-05T02:11:37.691Z,57.40
2017-10-05T02:12:37.531Z,60.10
2017-10-05T02:13:37.869Z,58.30
2017-10-05T02:14:37.940Z,65.50
2017-10-05T02:15:37.448Z,63.80
2017-10-05T02:16:37.753Z,65.00
2017-10-05T02:17:36.998Z,60.90
2017-10-05T02:18:37.114Z,56.90
2017-10-05T02:19:37.710Z,54.30
2017-10-05T02:20:37.659Z,52.30
2017-10-05T02:21:38.246Z,58.40
2017-10-05T02:22:37.850Z,55.00
2017-10-05T02:23:37.937Z,58.10
2017-10-05T02:24:37.415Z,53.50
2017-10-05T02:25:38.079Z,56.20
2017-10-05T02:26:37.622Z,58.80
2017-10-05T02:27:37.984Z,62.20
2017-10-05T02:28:37.547Z,56.80
2017-10-05T02:29:37.884Z,51.00
2017-10-05T02:30:37.478Z,51.30
2017-10-05T02:31:38.237Z,52.70
2017-10-05T02:32:37.662Z,50.30
2017-10-05T02:33:36.993Z,48.10
2017-10-05T02:34:37.325Z,67.10
2017-10-05T02:35:37.712Z,46.20
2017-10-05T02:36:36.993Z,41.20
2017-10-05T02:37:37.630Z,41.50
2017-10-05T02:38:37.368Z,36.30
2017-10-05T02:39:37.725Z,36.20
2017-10-05T02:40:37.015Z,37.20
2017-10-05T02:41:37.409Z,37.50
2017-10-05T02:42:38.047Z,34.00
2017-10-05T02:43:37.449Z,142.00
2017-10-05T02:44:38.365Z,58.00
2017-10-05T02:45:37.701Z,37.50
2017-10-05T02:46:38.011Z,33.30
2017-10-05T02:47:37.783Z,34.60
2017-10-05T02:48:37.427Z,37.00
2017-10-05T02:49:38.200Z,34.30
2017-10-05T02:50:38.328Z,36.00
2017-10-05T02:51:38.073Z,33.90
2017-10-05T02:52:37.543Z,36.20
2017-10-05T02:53:37.943Z,33.10
2017-10-05T02:54:37.614Z,33.20
2017-10-05T02:55:36.933Z,39.10
2017-10-05T02:56:37.987Z,32.50
2017-10-05T02:57:37.719Z,37.60
2017-10-05T02:58:37.156Z,32.60
2017-10-05T02:59:37.791Z,33.70
2017-10-05T03:00:37.049Z,40.60
2017-10-05T03:01:37.603Z,30.80
2017-10-05T03:02:37.041Z,26.50
2017-10-05T03:03:37.624Z,29.60
2017-10-05T03:04:38.078Z,27.90
2017-10-05T03:05:37.587Z,29.40
2017-10-05T03:06:38.139Z,29.90
2017-10-05T03:07:37.371Z,31.10
2017-10-05T03:08:37.762Z,27.30
2017-10-05T03:09:37.728Z,28.40
2017-10-05T03:10:37.017Z,26.20
2017-10-05T03:11:37.982Z,32.50
2017-10-05T03:12:37.400Z,26.40
2017-10-05T03:13:37.781Z,35.20
2017-10-05T03:14:37.712Z,29.20
2017-10-05T03:15:37.409Z,28.70
2017-10-05T03:16:38.558Z,26.20
2017-10-05T03:17:37.607Z,29.00
2017-10-05T03:18:37.340Z,28.40
2017-10-05T03:19:37.993Z,26.00
2017-10-05T03:20:37.598Z,24.80
2017-10-05T03:21:37.304Z,28.80
2017-10-05T03:22:38.147Z,24.00
2017-10-05T03:23:37.658Z,25.40
2017-10-05T03:24:36.986Z,31.00
2017-10-05T03:25:37.345Z,28.60
2017-10-05T03:26:37.991Z,26.30
2017-10-05T03:27:37.913Z,29.80
2017-10-05T03:28:37.434Z,30.60
2017-10-05T03:29:38.024Z,27.80
2017-10-05T03:30:37.709Z,31.20
2017-10-05T03:31:37.301Z,24.30
2017-10-05T03:32:38.400Z,25.70
2017-10-05T03:33:38.062Z,22.50
2017-10-05T03:34:37.490Z,23.00
2017-10-05T03:35:37.910Z,21.20
2017-10-05T03:36:37.352Z,26.70
2017-10-05T03:37:38.378Z,24.50
2017-10-05T03:38:37.695Z,18.10
2017-10-05T03:39:37.461Z,20.10
2017-10-05T03:40:37.846Z,20.70
2017-10-05T03:41:37.371Z,21.90
2017-10-05T03:42:39.361Z,21.20
2017-10-05T03:43:37.369Z,17.90
2017-10-05T03:44:37.958Z,18.20
2017-10-05T03:45:37.565Z,15.50
2017-10-05T03:46:37.308Z,20.90
2017-10-05T03:47:37.250Z,23.30
2017-10-05T03:48:37.590Z,19.70
2017-10-05T03:49:37.264Z,19.60
2017-10-05T03:50:37.962Z,19.00
2017-10-05T03:51:37.736Z,16.20
2017-10-05T03:52:37.010Z,17.90
2017-10-05T03:53:37.459Z,21.00
2017-10-05T03:54:38.083Z,21.20
2017-10-05T03:55:37.630Z,21.70
2017-10-05T03:56:36.923Z,18.70
2017-10-05T03:57:37.185Z,16.00
2017-10-05T03:58:37.985Z,14.90
2017-10-05T03:59:37.543Z,15.40
2017-10-05T04:00:37.940Z,15.90
2017-10-05T04:01:37.267Z,14.80
2017-10-05T04:02:37.062Z,18.90
2017-10-05T04:03:37.642Z,15.20
2017-10-05T04:04:37.333Z,15.60
2017-10-05T04:05:37.746Z,15.70
2017-10-05T04:06:37.072Z,15.70
2017-10-05T04:07:37.235Z,14.30
2017-10-05T04:08:37.790Z,11.30
2017-10-05T04:09:37.405Z,10.10
2017-10-05T04:10:38.047Z,11.20
2017-10-05T04:11:37.040Z,12.10
2017-10-05T04:12:37.294Z,14.00
2017-10-05T04:13:37.986Z,10.60
2017-10-05T04:14:37.654Z,14.50
2017-10-05T04:15:36.956Z,11.30
2017-10-05T04:16:37.531Z,13.00
2017-10-05T04:17:37.703Z,13.20
2017-10-05T04:18:37.819Z,12.30
2017-10-05T04:19:37.334Z,13.90
2017-10-05T04:20:37.721Z,14.80
2017-10-05T04:21:36.968Z,9.10
2017-10-05T04:22:37.397Z,10.10
2017-10-05T04:23:37.421Z,9.40
2017-10-05T04:24:37.933Z,14.40
2017-10-05T04:25:37.531Z,11.90
2017-10-05T04:26:37.297Z,10.40
2017-10-05T04:27:37.522Z,11.80
2017-10-05T04:28:37.187Z,11.20
2017-10-05T04:29:37.741Z,11.60
2017-10-05T04:30:37.435Z,7.90
2017-10-05T04:31:37.577Z,9.30
2017-10-05T04:32:37.250Z,12.90
2017-10-05T04:33:37.842Z,8.20
2017-10-05T04:34:37.496Z,8.10
2017-10-05T04:35:37.592Z,9.90
2017-10-05T04:36:37.629Z,9.50
2017-10-05T04:37:36.736Z,8.50
2017-10-05T04:38:37.242Z,9.60
2017-10-05T04:39:37.432Z,8.80
2017-10-05T04:40:37.104Z,8.80
2017-10-05T04:41:37.689Z,8.40
2017-10-05T04:42:36.886Z,8.90
2017-10-05T04:43:37.122Z,10.50
2017-10-05T04:44:37.353Z,10.50
2017-10-05T04:45:37.465Z,8.60
2017-10-05T04:46:37.175Z,11.40
2017-10-05T04:47:37.322Z,9.80
2017-10-05T04:48:37.810Z,10.30
2017-10-05T04:49:37.177Z,10.00
2017-10-05T04:50:37.751Z,8.30
2017-10-05T04:51:37.066Z,9.40
2017-10-05T04:52:37.627Z,8.40
2017-10-05T04:53:37.045Z,7.80
2017-10-05T04:54:37.507Z,9.20
2017-10-05T04:55:37.700Z,13.30
2017-10-05T04:56:37.288Z,9.60
2017-10-05T04:57:37.509Z,11.70
2017-10-05T04:58:36.838Z,11.00
2017-10-05T04:59:37.012Z,8.80
2017-10-05T05:00:37.569Z,16.00
2017-10-05T05:01:37.099Z,12.20
2017-10-05T05:02:37.382Z,10.50
2017-10-05T05:03:37.408Z,10.40
2017-10-05T05:04:37.665Z,11.80
2017-10-05T05:05:37.156Z,13.70
2017-10-05T05:06:37.666Z,11.00
2017-10-05T05:07:36.764Z,9.20
2017-10-05T05:08:37.309Z,12.50
2017-10-05T05:09:37.492Z,12.90
2017-10-05T05:10:37.095Z,11.80
2017-10-05T05:11:37.500Z,13.60
2017-10-05T05:12:36.861Z,15.10
2017-10-05T05:13:37.444Z,11.40
2017-10-05T05:14:37.387Z,13.70
2017-10-05T05:15:37.631Z,12.00
2017-10-05T05:16:38.029Z,15.30
2017-10-05T05:17:37.922Z,15.20
2017-10-05T05:18:37.323Z,12.20
2017-10-05T05:19:37.144Z,11.60
2017-10-05T05:20:37.596Z,11.10
2017-10-05T05:21:37.302Z,12.10
2017-10-05T05:22:37.588Z,12.70
2017-10-05T05:23:37.170Z,12.70
2017-10-05T05:24:37.877Z,12.10
2017-10-05T05:25:37.639Z,12.30
2017-10-05T05:26:37.291Z,16.60
2017-10-05T05:27:38.011Z,15.90
2017-10-05T05:28:37.868Z,16.90
2017-10-05T05:29:37.433Z,12.60
2017-10-05T05:30:38.087Z,14.60
2017-10-05T05:31:37.759Z,15.70
2017-10-05T05:32:37.710Z,11.40
2017-10-05T05:33:38.035Z,13.20
2017-10-05T05:34:37.808Z,12.40
2017-10-05T05:35:37.054Z,12.10
2017-10-05T05:36:37.541Z,17.00
2017-10-05T05:37:37.234Z,15.40
2017-10-05T05:38:37.699Z,18.80
2017-10-05T05:39:37.322Z,18.70
2017-10-05T05:40:37.951Z,20.50
2017-10-05T05:41:37.593Z,22.80
2017-10-05T05:42:37.207Z,26.50
2017-10-05T05:43:37.687Z,21.50
2017-10-05T05:44:37.054Z,15.20
2017-10-05T05:45:37.839Z,22.80
2017-10-05T05:46:37.491Z,23.70
2017-10-05T05:47:36.913Z,23.60
2017-10-05T05:48:37.592Z,25.60
2017-10-05T05:49:37.419Z,24.70
2017-10-05T05:50:36.946Z,17.70
2017-10-05T05:51:37.485Z,26.40
2017-10-05T05:52:38.024Z,26.80
2017-10-05T05:53:37.687Z,26.10
2017-10-05T05:54:37.275Z,27.10
2017-10-05T05:55:38.048Z,28.40
2017-10-05T05:56:37.431Z,26.30
2017-10-05T05:57:37.211Z,22.20
2017-10-05T05:58:38.405Z,28.90
2017-10-05T05:59:37.264Z,24.50
2017-10-05T06:00:37.478Z,24.40
2017-10-05T06:01:37.220Z,22.10
2017-10-05T06:02:37.906Z,25.80
2017-10-05T06:03:37.961Z,24.70
2017-10-05T06:04:37.692Z,28.80
2017-10-05T06:05:37.099Z,31.00
2017-10-05T06:06:37.464Z,27.40
2017-10-05T06:07:37.052Z,27.10
2017-10-05T06:08:37.647Z,34.30
2017-10-05T06:09:37.108Z,33.40
2017-10-05T06:10:37.838Z,28.70
2017-10-05T06:11:37.692Z,27.60
2017-10-05T06:12:37.151Z,28.20
2017-10-05T06:13:38.060Z,29.10
2017-10-05T06:14:37.886Z,24.40
2017-10-05T06:15:37.625Z,24.50
2017-10-05T06:16:37.779Z,22.80
2017-10-05T06:17:37.485Z,25.40
2017-10-05T06:18:36.906Z,27.70
2017-10-05T06:19:37.628Z,28.00
2017-10-05T06:20:37.144Z,29.00
2017-10-05T06:21:37.664Z,28.80
2017-10-05T06:22:37.633Z,30.00
2017-10-05T06:23:37.409Z,24.20
2017-10-05T06:24:37.269Z,22.30
2017-10-05T06:25:38.479Z,27.90
2017-10-05T06:26:37.246Z,30.30
2017-10-05T06:27:38.308Z,18.00
2017-10-05T06:28:37.201Z,25.40
2017-10-05T06:29:37.912Z,25.20
2017-10-05T06:30:37.904Z,29.20
2017-10-05T06:31:38.270Z,24.30
2017-10-05T06:32:38.108Z,22.80
2017-10-05T06:33:37.302Z,19.40
2017-10-05T06:34:37.197Z,25.80
2017-10-05T06:35:38.072Z,17.40
2017-10-05T06:36:37.806Z,21.20
2017-10-05T06:37:37.716Z,24.90
2017-10-05T06:38:37.526Z,23.60
2017-10-05T06:39:37.430Z,23.00
2017-10-05T06:40:38.474Z,16.70
2017-10-05T06:41:36.780Z,15.10
2017-10-05T06:42:37.382Z,19.00
2017-10-05T06:43:36.861Z,17.70
2017-10-05T06:44:37.502Z,22.50
2017-10-05T06:45:37.205Z,18.20
2017-10-05T06:46:37.936Z,24.10
2017-10-05T06:47:37.487Z,28.60
2017-10-05T06:48:37.394Z,20.60
2017-10-05T06:49:38.155Z,21.60
2017-10-05T06:50:38.076Z,23.30
2017-10-05T06:51:37.919Z,19.30
2017-10-05T06:52:37.569Z,21.00
2017-10-05T06:53:36.951Z,18.50
2017-10-05T06:54:37.448Z,14.40
2017-10-05T06:55:37.177Z,17.80
2017-10-05T06:56:37.955Z,22.00
2017-10-05T06:57:37.752Z,19.70
2017-10-05T06:58:37.512Z,17.30
2017-10-05T06:59:37.062Z,22.30
2017-10-05T07:00:37.801Z,25.50
2017-10-05T07:01:37.972Z,22.30
2017-10-05T07:02:38.142Z,27.70
2017-10-05T07:03:38.015Z,24.60
2017-10-05T07:04:37.635Z,23.40
2017-10-05T07:05:37.437Z,22.20
2017-10-05T07:06:36.907Z,12.70
2017-10-05T07:07:37.647Z,15.00
2017-10-05T07:08:37.395Z,15.70
2017-10-05T07:09:38.093Z,18.90
2017-10-05T07:10:37.741Z,21.10
2017-10-05T07:11:37.470Z,18.70
2017-10-05T07:12:37.061Z,20.80
2017-10-05T07:13:37.211Z,17.50
2017-10-05T07:14:37.899Z,15.50
2017-10-05T07:15:37.633Z,15.40
2017-10-05T07:16:36.952Z,11.50
2017-10-05T07:17:37.238Z,12.70
2017-10-05T07:18:38.128Z,12.80
2017-10-05T07:19:37.777Z,17.30
2017-10-05T07:20:37.637Z,13.50
2017-10-05T07:21:37.270Z,16.80
2017-10-05T07:22:37.071Z,13.30
2017-10-05T07:23:38.033Z,11.80
2017-10-05T07:24:37.394Z,16.10
2017-10-05T07:25:37.276Z,14.60
2017-10-05T07:26:38.125Z,13.00
2017-10-05T07:27:38.039Z,12.10
2017-10-05T07:28:37.998Z,14.20
2017-10-05T07:29:37.502Z,12.10
2017-10-05T07:30:37.280Z,11.30
2017-10-05T07:31:38.096Z,10.80
2017-10-05T07:32:37.789Z,14.70
2017-10-05T07:33:37.877Z,12.90
2017-10-05T07:34:37.747Z,9.70
2017-10-05T07:35:37.604Z,8.50
2017-10-05T07:36:37.431Z,10.90
2017-10-05T07:37:37.102Z,11.40
2017-10-05T07:38:38.258Z,15.40
2017-10-05T07:39:37.317Z,8.30
2017-10-05T07:40:38.336Z,11.60
2017-10-05T07:41:36.906Z,9.80
2017-10-05T07:42:37.790Z,11.40
2017-10-05T07:43:38.150Z,9.10
2017-10-05T07:44:37.767Z,11.20
2017-10-05T07:45:37.716Z,10.80
2017-10-05T07:46:37.627Z,9.00
2017-10-05T07:47:37.734Z,10.70
2017-10-05T07:48:38.185Z,12.90
2017-10-05T07:49:37.924Z,12.70
2017-10-05T07:50:37.608Z,10.40
2017-10-05T07:51:38.409Z,9.30
2017-10-05T07:52:37.529Z,11.30
2017-10-05T07:53:37.523Z,14.00
2017-10-05T07:54:37.471Z,11.40
2017-10-05T07:55:38.105Z,11.20
2017-10-05T07:56:38.042Z,8.40
2017-10-05T07:57:37.594Z,11.30
2017-10-05T07:58:37.921Z,6.10
2017-10-05T07:59:37.490Z,9.00
2017-10-05T08:00:37.110Z,11.20
2017-10-05T08:01:37.596Z,7.30
2017-10-05T08:02:37.252Z,8.80
2017-10-05T08:03:38.027Z,8.10
2017-10-05T08:04:38.345Z,10.30
2017-10-05T08:05:37.094Z,7.80
2017-10-05T08:06:38.003Z,8.60
2017-10-05T08:07:37.790Z,8.00
2017-10-05T08:08:37.685Z,5.10
2017-10-05T08:09:37.924Z,7.20
2017-10-05T08:10:37.919Z,8.30
2017-10-05T08:11:37.873Z,8.60
2017-10-05T08:12:37.425Z,7.70
2017-10-05T08:13:37.276Z,8.30
2017-10-05T08:14:37.107Z,6.30
2017-10-05T08:15:38.477Z,5.50
2017-10-05T08:16:37.522Z,5.70
2017-10-05T08:17:38.504Z,4.60
2017-10-05T08:18:37.747Z,6.90
2017-10-05T08:19:37.516Z,7.20
2017-10-05T08:20:37.185Z,6.80
2017-10-05T08:21:38.123Z,9.40
2017-10-05T08:22:37.993Z,6.00
2017-10-05T08:23:37.587Z,6.90
2017-10-05T08:24:37.284Z,5.20
2017-10-05T08:25:38.164Z,2.90
2017-10-05T08:26:37.938Z,3.70
2017-10-05T08:27:37.962Z,6.30
2017-10-05T08:28:37.969Z,5.70
2017-10-05T08:29:37.790Z,4.80
2017-10-05T08:30:37.634Z,7.20
2017-10-05T08:31:37.321Z,4.90
2017-10-05T08:32:38.032Z,5.20
2017-10-05T08:33:37.972Z,6.10
2017-10-05T08:34:38.159Z,7.00
2017-10-05T08:35:37.324Z,6.30
2017-10-05T08:36:37.970Z,5.70
2017-10-05T08:37:38.437Z,6.60
2017-10-05T08:38:37.675Z,4.50
2017-10-05T08:39:37.333Z,5.00
2017-10-05T08:40:37.245Z,3.90
2017-10-05T08:41:38.074Z,5.10
2017-10-05T08:42:39.005Z,5.70
2017-10-05T08:43:38.703Z,3.70
2017-10-05T08:44:37.196Z,4.10
2017-10-05T08:45:38.084Z,4.70
2017-10-05T08:46:38.295Z,3.00
2017-10-05T08:47:38.389Z,5.00
2017-10-05T08:48:37.574Z,5.10
2017-10-05T08:49:37.504Z,3.90
2017-10-05T08:50:37.413Z,2.10
2017-10-05T08:51:37.441Z,2.80
2017-10-05T08:52:37.094Z,2.40
2017-10-05T08:53:38.221Z,6.90
2017-10-05T08:54:38.263Z,3.10
2017-10-05T08:55:37.358Z,2.60
2017-10-05T08:56:37.151Z,4.20
2017-10-05T08:57:38.194Z,2.50
2017-10-05T08:58:37.380Z,2.50
2017-10-05T08:59:37.515Z,1.40
2017-10-05T09:00:37.301Z,2.20
2017-10-05T09:01:38.041Z,2.20
2017-10-05T09:02:37.640Z,4.30
2017-10-05T09:03:37.329Z,4.00
2017-10-05T09:04:37.787Z,2.60
2017-10-05T09:05:37.689Z,2.60
2017-10-05T09:06:37.456Z,1.60
2017-10-05T09:07:36.848Z,1.50
2017-10-05T09:08:37.678Z,3.20
2017-10-05T09:09:37.435Z,1.70
2017-10-05T09:10:37.302Z,1.50
2017-10-05T09:11:36.797Z,2.50
2017-10-05T09:12:37.606Z,1.70
2017-10-05T09:13:37.401Z,2.20
2017-10-05T09:14:38.086Z,1.80
2017-10-05T09:15:37.744Z,2.60
2017-10-05T09:16:37.316Z,3.20
2017-10-05T09:17:38.113Z,3.00
2017-10-05T09:18:37.119Z,3.90
2017-10-05T09:19:37.136Z,3.30
2017-10-05T09:20:37.697Z,3.30
2017-10-05T09:21:37.447Z,2.90
2017-10-05T09:22:36.881Z,4.50
2017-10-05T09:23:37.542Z,1.80
2017-10-05T09:24:37.252Z,2.10
2017-10-05T09:25:38.168Z,3.20
2017-10-05T09:26:37.445Z,2.10
2017-10-05T09:27:37.469Z,2.60
2017-10-05T09:28:37.344Z,1.70
2017-10-05T09:29:37.306Z,2.40
2017-10-05T09:30:37.329Z,2.80
2017-10-05T09:31:37.988Z,2.20
2017-10-05T09:32:37.568Z,1.40
2017-10-05T09:33:37.309Z,2.70
2017-10-05T09:34:37.671Z,3.10
2017-10-05T09:35:37.576Z,2.20
2017-10-05T09:36:37.340Z,2.00
2017-10-05T09:37:37.392Z,3.70
2017-10-05T09:38:37.393Z,5.30
2017-10-05T09:39:38.051Z,3.30
2017-10-05T09:40:37.471Z,4.70
2017-10-05T09:41:37.338Z,7.00
2017-10-05T09:42:38.456Z,3.10
2017-10-05T09:43:37.343Z,4.60
2017-10-05T09:44:38.291Z,3.20
2017-10-05T09:45:38.253Z,30.40
2017-10-05T09:46:37.787Z,4.60
2017-10-05T09:47:37.848Z,5.90
2017-10-05T09:48:37.509Z,6.40
2017-10-05T09:49:37.654Z,5.10
2017-10-05T09:50:37.178Z,8.90
2017-10-05T09:51:37.755Z,5.80
2017-10-05T09:52:37.692Z,5.00
2017-10-05T09:53:37.318Z,6.60
2017-10-05T09:54:36.960Z,7.40
2017-10-05T09:55:37.665Z,8.20
2017-10-05T09:56:37.691Z,5.80
2017-10-05T09:57:37.539Z,9.80
2017-10-05T09:58:37.725Z,5.90
2017-10-05T09:59:37.495Z,9.70
2017-10-05T10:00:37.457Z,5.90
2017-10-05T10:01:37.237Z,13.00
2017-10-05T10:02:38.797Z,6.60
2017-10-05T10:03:37.757Z,10.90
2017-10-05T10:04:37.518Z,6.70
2017-10-05T10:05:37.292Z,8.50
2017-10-05T10:06:37.936Z,8.00
2017-10-05T10:07:38.663Z,8.40
2017-10-05T10:08:37.931Z,8.90
2017-10-05T10:09:37.826Z,10.60
2017-10-05T10:10:37.680Z,8.20
2017-10-05T10:11:37.409Z,10.10
2017-10-05T10:12:37.224Z,14.00
2017-10-05T10:13:38.257Z,9.50
2017-10-05T10:14:38.025Z,9.80
2017-10-05T10:15:37.868Z,11.30
2017-10-05T10:16:37.975Z,12.70
2017-10-05T10:17:37.972Z,6.40
2017-10-05T10:18:37.969Z,6.00
2017-10-05T10:19:37.641Z,13.40
2017-10-05T10:20:37.799Z,7.50
2017-10-05T10:21:37.688Z,10.10
2017-10-05T10:22:37.772Z,11.50
2017-10-05T10:23:38.764Z,8.20
2017-10-05T10:24:37.255Z,7.00
2017-10-05T10:25:37.427Z,7.80
2017-10-05T10:26:37.483Z,9.20
2017-10-05T10:27:38.066Z,10.20
2017-10-05T10:28:38.052Z,8.90
2017-10-05T10:29:37.987Z,7.00
2017-10-05T10:30:37.921Z,10.90
2017-10-05T10:31:37.858Z,8.00
2017-10-05T10:32:38.044Z,8.60
2017-10-05T10:33:37.994Z,6.60
2017-10-05T10:34:38.401Z,11.50
2017-10-05T10:35:37.243Z,8.80
2017-10-05T10:36:37.417Z,8.80
2017-10-05T10:37:37.325Z,4.20
2017-10-05T10:38:37.329Z,9.90
2017-10-05T10:39:37.609Z,8.40
2017-10-05T10:40:37.643Z,8.50
2017-10-05T10:41:37.689Z,8.20
2017-10-05T10:42:37.809Z,11.10
2017-10-05T10:43:39.320Z,17.80
2017-10-05T10:44:38.369Z,5.90
2017-10-05T10:45:37.295Z,9.50
2017-10-05T10:46:38.252Z,10.80
2017-10-05T10:47:37.316Z,10.60
2017-10-05T10:48:37.397Z,12.00
2017-10-05T10:49:37.314Z,4.10
2017-10-05T10:50:37.894Z,12.40
2017-10-05T10:51:37.639Z,9.20
2017-10-05T10:52:37.621Z,6.70
2017-10-05T10:53:37.676Z,3.90
2017-10-05T10:54:37.514Z,6.00
2017-10-05T10:55:37.440Z,6.40
2017-10-05T10:56:37.678Z,3.50
2017-10-05T10:57:38.773Z,4.30
2017-10-05T10:58:37.887Z,4.60
2017-10-05T10:59:37.769Z,7.50
2017-10-05T11:00:38.045Z,5.30
2017-10-05T11:01:38.037Z,5.50
2017-10-05T11:02:38.194Z,6.50
2017-10-05T11:03:37.171Z,5.30
2017-10-05T11:04:38.161Z,6.10
2017-10-05T11:05:38.113Z,8.30
2017-10-05T11:06:38.492Z,5.60
2017-10-05T11:07:37.295Z,4.90
2017-10-05T11:08:38.829Z,5.80
2017-10-05T11:09:37.780Z,7.90
2017-10-05T11:10:37.653Z,6.60
2017-10-05T11:11:38.213Z,9.90
2017-10-05T11:12:39.980Z,7.50
2017-10-05T11:13:38.049Z,7.60
2017-10-05T11:14:38.206Z,6.70
2017-10-05T11:15:38.542Z,3.30
2017-10-05T11:16:38.025Z,8.20
2017-10-05T11:17:38.016Z,4.10
2017-10-05T11:18:37.879Z,4.90
2017-10-05T11:19:39.269Z,7.90
2017-10-05T11:20:38.716Z,6.80
2017-10-05T11:21:37.990Z,6.10
2017-10-05T11:22:37.349Z,6.80
2017-10-05T11:23:38.204Z,5.20
2017-10-05T11:24:37.619Z,8.80
2017-10-05T11:25:37.687Z,9.50
2017-10-05T11:26:38.618Z,8.20
2017-10-05T11:27:37.822Z,9.20
2017-10-05T11:28:38.444Z,11.30
2017-10-05T11:29:37.763Z,8.80
2017-10-05T11:30:37.850Z,5.90
2017-10-05T11:31:38.363Z,9.00
2017-10-05T11:32:37.394Z,11.10
2017-10-05T11:33:37.628Z,10.00
2017-10-05T11:34:37.939Z,11.10
2017-10-05T11:35:38.356Z,8.20
2017-10-05T11:36:37.544Z,12.30
2017-10-05T11:37:37.532Z,13.70
2017-10-05T11:38:37.875Z,7.00
2017-10-05T11:39:37.517Z,11.90
2017-10-05T11:40:38.750Z,13.60
2017-10-05T11:41:37.986Z,16.30
2017-10-05T11:42:39.321Z,12.10
2017-10-05T11:43:37.947Z,12.20
2017-10-05T11:44:38.889Z,9.10
2017-10-05T11:45:38.959Z,8.60
2017-10-05T11:46:38.662Z,7.40
2017-10-05T11:47:37.891Z,9.20
2017-10-05T11:48:37.825Z,11.60
2017-10-05T11:49:41.669Z,16.40
2017-10-05T11:50:37.896Z,13.20
2017-10-05T11:51:38.643Z,8.60
2017-10-05T11:52:37.847Z,12.20
2017-10-05T11:53:37.928Z,11.60
2017-10-05T11:54:38.252Z,17.90
2017-10-05T11:55:37.126Z,11.20
2017-10-05T11:56:38.064Z,11.60
2017-10-05T11:57:37.553Z,7.10
2017-10-05T11:58:37.304Z,9.30
2017-10-05T11:59:37.039Z,11.80
2017-10-05T12:00:38.447Z,5.00
2017-10-05T12:01:37.546Z,5.80
2017-10-05T12:02:37.419Z,10.30
2017-10-05T12:03:38.364Z,11.30
2017-10-05T12:04:37.583Z,6.20
2017-10-05T12:05:39.146Z,4.70
2017-10-05T12:06:39.215Z,6.20
2017-10-05T12:07:37.829Z,7.80
2017-10-05T12:08:38.813Z,8.10
2017-10-05T12:09:37.801Z,7.50
2017-10-05T12:10:37.957Z,8.20
2017-10-05T12:11:38.199Z,8.30
2017-10-05T12:12:37.484Z,8.80
2017-10-05T12:13:39.043Z,4.10
2017-10-05T12:14:38.096Z,6.20
2017-10-05T12:15:38.734Z,7.50
2017-10-05T12:16:37.941Z,4.10
2017-10-05T12:17:38.035Z,5.20
2017-10-05T12:18:38.477Z,10.70
2017-10-05T12:19:37.422Z,7.00
2017-10-05T12:20:37.826Z,8.60
2017-10-05T12:21:37.830Z,7.90
2017-10-05T12:22:38.234Z,8.40
2017-10-05T12:23:38.562Z,4.50
2017-10-05T12:24:37.471Z,6.10
2017-10-05T12:25:37.539Z,8.00
2017-10-05T12:26:38.345Z,7.40
2017-10-05T12:27:37.719Z,5.70
2017-10-05T12:28:38.312Z,4.90
2017-10-05T12:29:37.234Z,5.50
2017-10-05T12:30:37.650Z,4.90
2017-10-05T12:31:38.441Z,5.90
2017-10-05T12:32:38.744Z,7.00
2017-10-05T12:33:37.343Z,7.20
2017-10-05T12:34:38.434Z,4.30
2017-10-05T12:35:38.880Z,5.70
2017-10-05T12:36:38.235Z,7.40
2017-10-05T12:37:38.200Z,5.70
2017-10-05T12:38:38.418Z,7.30
2017-10-05T12:39:37.335Z,5.70
2017-10-05T12:40:37.381Z,5.20
2017-10-05T12:41:38.107Z,7.00
2017-10-05T12:42:37.996Z,9.30
2017-10-05T12:43:38.214Z,8.00
2017-10-05T12:44:38.218Z,7.20
2017-10-05T12:45:37.861Z,9.70
2017-10-05T12:46:37.896Z,13.50
2017-10-05T12:47:37.970Z,11.20
2017-10-05T12:48:38.192Z,6.90
2017-10-05T12:49:37.927Z,11.80
2017-10-05T12:50:37.746Z,5.50
2017-10-05T12:51:38.072Z,5.90
2017-10-05T12:52:40.310Z,7.90
2017-10-05T12:53:38.067Z,8.80
2017-10-05T12:54:38.805Z,9.70
2017-10-05T12:55:37.656Z,9.60
2017-10-05T12:56:37.567Z,8.40
2017-10-05T12:57:37.658Z,12.30
2017-10-05T12:58:37.899Z,6.90
2017-10-05T12:59:37.448Z,6.90
2017-10-05T13:00:37.519Z,7.30
2017-10-05T13:01:37.450Z,9.90